Time;durP1;ratioP1;P1;durP2;ratioP2;P2;SDS_P1;SDS_P2;PMS_P1;PMS_P2;Temp;Humidity;BMP_temperature;BMP_pressure;BME280_temperature;BME280_humidity;BME280_pressure;Samples;Min_cycle;Max_cycle;Signal;HPM_P1;HPM_P2
2021/11/30 00:01:29;;;;;;;6.13;1.20;;;6.70;92.10;;;;;;5020950;28;20041;-78
2021/11/30 00:03:54;;;;;;;7.18;1.55;;;6.70;92.10;;;;;;5029888;28;20029;-78
2021/11/30 00:06:20;;;;;;;7.93;1.50;;;6.70;92.10;;;;;;5029890;28;20488;-78
2021/11/30 00:08:48;;;;;;;7.20;1.35;;;6.70;92.20;;;;;;5029279;28;20120;-78
2021/11/30 00:11:14;;;;;;;6.88;1.13;;;6.70;92.10;;;;;;5028676;28;20030;-80
2021/11/30 00:13:41;;;;;;;2.22;1.02;;;6.70;92.20;;;;;;5031184;28;20396;-78
2021/11/30 00:16:08;;;;;;;2.83;1.25;;;6.70;92.20;;;;;;5032639;28;20444;-78
2021/11/30 00:18:35;;;;;;;2.70;0.93;;;6.70;92.20;;;;;;5025801;28;20029;-77
2021/11/30 00:21:08;;;;;;;2.92;1.33;;;6.70;92.20;;;;;;5022825;28;20026;-80
2021/11/30 00:23:34;;;;;;;4.32;1.60;;;6.70;92.20;;;;;;5022437;28;20044;-80
2021/11/30 00:26:00;;;;;;;6.75;1.50;;;6.80;92.30;;;;;;5028841;28;20404;-78
2021/11/30 00:28:26;;;;;;;6.22;1.83;;;6.70;92.20;;;;;;5031869;28;20095;-77
2021/11/30 00:30:52;;;;;;;6.60;1.65;;;6.70;92.20;;;;;;5022931;28;20033;-78
2021/11/30 00:33:18;;;;;;;7.68;1.77;;;6.60;92.30;;;;;;5026657;28;20049;-78
2021/11/30 00:35:44;;;;;;;8.23;1.80;;;6.50;92.40;;;;;;5031075;28;20057;-77
2021/11/30 00:38:13;;;;;;;2.67;1.48;;;6.40;92.40;;;;;;5021262;28;20061;-79
2021/11/30 00:40:44;;;;;;;5.18;1.75;;;6.40;92.50;;;;;;5019105;28;20539;-78
2021/11/30 00:43:18;;;;;;;2.45;1.40;;;6.30;92.70;;;;;;5020174;28;20022;-80
2021/11/30 00:45:52;;;;;;;6.38;1.42;;;6.30;92.70;;;;;;5027102;28;20034;-80
2021/11/30 00:48:22;;;;;;;3.92;1.75;;;6.30;92.80;;;;;;5024601;28;20121;-79
2021/11/30 00:50:51;;;;;;;5.38;1.23;;;6.30;92.80;;;;;;5031813;28;20492;-79
2021/11/30 00:53:18;;;;;;;5.95;1.77;;;6.30;92.70;;;;;;5023662;28;20176;-80
2021/11/30 00:55:44;;;;;;;4.28;1.38;;;6.40;92.80;;;;;;5021874;28;20172;-80
2021/11/30 00:58:10;;;;;;;5.30;1.77;;;6.30;92.80;;;;;;5025256;28;20037;-80
2021/11/30 01:00:36;;;;;;;2.10;1.35;;;6.30;93.00;;;;;;5031668;28;20026;-80
2021/11/30 01:03:04;;;;;;;7.43;1.40;;;6.30;93.00;;;;;;5025269;28;20069;-79
2021/11/30 01:05:30;;;;;;;7.13;1.27;;;6.30;93.10;;;;;;5028777;28;20034;-80
2021/11/30 01:07:55;;;;;;;3.25;1.60;;;6.20;93.20;;;;;;5026639;28;20033;-80
2021/11/30 01:10:21;;;;;;;7.63;1.88;;;6.20;93.30;;;;;;5027126;28;20030;-80
2021/11/30 01:12:47;;;;;;;1.67;1.00;;;6.20;93.30;;;;;;5027851;28;20049;-80
2021/11/30 01:15:17;;;;;;;4.38;1.48;;;6.20;93.30;;;;;;5023672;28;20034;-79
2021/11/30 01:17:43;;;;;;;10.07;1.88;;;6.30;93.30;;;;;;5030717;28;20112;-79
2021/11/30 01:20:11;;;;;;;7.18;1.80;;;6.30;93.30;;;;;;5029228;28;20120;-79
2021/11/30 01:22:38;;;;;;;6.07;1.70;;;6.30;93.30;;;;;;5032804;28;20053;-80
2021/11/30 01:25:05;;;;;;;4.28;1.45;;;6.40;93.30;;;;;;5029079;28;20040;-79
2021/11/30 01:27:31;;;;;;;4.05;1.33;;;6.40;93.30;;;;;;5035547;28;20509;-79
2021/11/30 01:29:57;;;;;;;4.38;1.92;;;6.40;93.30;;;;;;5033853;28;20060;-79
2021/11/30 01:32:23;;;;;;;1.90;1.40;;;6.40;93.30;;;;;;5025988;28;20033;-82
2021/11/30 01:34:48;;;;;;;5.57;1.70;;;6.40;93.30;;;;;;5030542;28;20128;-80
2021/11/30 01:37:16;;;;;;;1.20;1.10;;;6.40;93.30;;;;;;5033139;28;20448;-79
2021/11/30 01:39:44;;;;;;;4.03;1.58;;;6.40;93.40;;;;;;5034930;28;20104;-80
2021/11/30 01:42:12;;;;;;;6.57;1.90;;;6.40;93.40;;;;;;5019573;28;20068;-80
2021/11/30 01:44:46;;;;;;;4.47;1.63;;;6.40;93.50;;;;;;5020208;28;20034;-79
2021/11/30 01:49:54;;;;;;;4.43;1.60;;;6.40;93.70;;;;;;5029109;28;20034;-80
2021/11/30 01:52:21;;;;;;;1.83;1.30;;;6.40;93.70;;;;;;5027531;28;20045;-80
2021/11/30 01:54:48;;;;;;;6.60;1.95;;;6.40;93.80;;;;;;5027424;28;20041;-77
2021/11/30 01:57:15;;;;;;;2.92;1.58;;;6.30;93.80;;;;;;5030377;28;20034;-77
2021/11/30 01:59:43;;;;;;;4.75;1.83;;;6.40;93.80;;;;;;5020123;28;20042;-79
2021/11/30 02:02:09;;;;;;;3.40;1.60;;;6.30;93.90;;;;;;5019999;28;20025;-77
2021/11/30 02:04:36;;;;;;;4.63;1.40;;;6.40;94.00;;;;;;5026311;28;20045;-77
2021/11/30 02:07:03;;;;;;;2.05;1.17;;;6.30;94.00;;;;;;5032629;28;20029;-78
2021/11/30 02:09:29;;;;;;;7.85;2.28;;;6.40;94.10;;;;;;5023242;28;20041;-79
2021/11/30 02:11:56;;;;;;;3.95;1.65;;;6.30;94.20;;;;;;5032572;28;20021;-79
2021/11/30 02:14:22;;;;;;;3.05;1.70;;;6.30;94.20;;;;;;5033056;28;20120;-79
2021/11/30 02:16:48;;;;;;;3.60;1.40;;;6.30;94.20;;;;;;5024243;28;20402;-79
2021/11/30 02:19:14;;;;;;;3.53;1.70;;;6.40;94.30;;;;;;5031754;28;20025;-79
2021/11/30 02:21:40;;;;;;;2.72;1.50;;;6.40;94.40;;;;;;5025291;28;20025;-79
2021/11/30 02:24:08;;;;;;;4.15;1.55;;;6.40;94.40;;;;;;5028112;28;20037;-80
2021/11/30 02:26:35;;;;;;;3.47;1.40;;;6.40;94.40;;;;;;5023314;28;20032;-79
2021/11/30 02:29:05;;;;;;;3.25;1.50;;;6.40;94.50;;;;;;5026841;28;20041;-81
2021/11/30 02:31:35;;;;;;;2.35;1.40;;;6.40;94.60;;;;;;5028488;28;20077;-80
2021/11/30 02:34:04;;;;;;;1.80;1.40;;;6.40;94.70;;;;;;5027093;28;20077;-80
2021/11/30 02:39:13;;;;;;;1.70;1.20;;;6.50;94.70;;;;;;5027431;28;20037;-79
2021/11/30 02:41:40;;;;;;;3.20;1.33;;;6.50;94.70;;;;;;5021957;28;20032;-79
2021/11/30 02:44:07;;;;;;;1.20;1.15;;;6.50;94.80;;;;;;5033888;28;20103;-79
2021/11/30 02:46:42;;;;;;;3.35;1.52;;;6.50;94.90;;;;;;5031946;28;20096;-80
2021/11/30 02:49:11;;;;;;;3.08;1.40;;;6.60;95.00;;;;;;5024860;28;20037;-79
2021/11/30 02:51:41;;;;;;;3.75;1.60;;;6.50;95.00;;;;;;5019826;28;20025;-79
2021/11/30 02:54:10;;;;;;;1.60;1.48;;;6.60;95.10;;;;;;5017986;28;20096;-80
2021/11/30 02:57:03;;;;;;;2.83;1.52;;;6.60;95.00;;;;;;5031663;28;20030;-79
2021/11/30 02:59:31;;;;;;;2.88;1.77;;;6.60;95.10;;;;;;5033057;28;20056;-79
2021/11/30 03:02:01;;;;;;;3.10;1.70;;;6.70;95.20;;;;;;5030048;28;20033;-80
2021/11/30 03:04:28;;;;;;;3.53;1.60;;;6.70;95.30;;;;;;5033927;28;20037;-79
2021/11/30 03:06:55;;;;;;;4.22;1.65;;;6.70;95.40;;;;;;5018003;28;20075;-79
2021/11/30 03:09:21;;;;;;;2.38;1.70;;;6.70;95.40;;;;;;5031682;28;20120;-79
2021/11/30 03:11:47;;;;;;;2.45;1.88;;;6.70;95.50;;;;;;5031618;28;20164;-79
2021/11/30 03:14:13;;;;;;;1.83;1.70;;;6.70;95.60;;;;;;5031079;28;20049;-79
2021/11/30 03:16:39;;;;;;;1.90;1.55;;;6.70;95.70;;;;;;5021532;28;20113;-79
2021/11/30 03:19:06;;;;;;;1.65;1.55;;;6.70;95.80;;;;;;5032958;28;20029;-79
2021/11/30 03:21:32;;;;;;;1.38;1.27;;;6.80;95.80;;;;;;5028421;28;20025;-79
2021/11/30 03:23:59;;;;;;;2.13;1.60;;;6.80;95.90;;;;;;5019655;28;20037;-79
2021/11/30 03:26:24;;;;;;;2.50;1.70;;;6.90;95.90;;;;;;5028589;28;20018;-79
2021/11/30 03:28:50;;;;;;;2.13;1.40;;;6.90;96.00;;;;;;5029979;28;20435;-79
2021/11/30 03:34:05;;;;;;;2.70;1.50;;;7.00;96.30;;;;;;5032782;28;20041;-79
2021/11/30 03:36:33;;;;;;;1.30;1.20;;;7.00;96.10;;;;;;5018594;28;20085;-80
2021/11/30 03:39:01;;;;;;;1.48;1.25;;;7.10;96.20;;;;;;5028213;28;20393;-80
2021/11/30 03:41:30;;;;;;;1.50;1.27;;;7.10;96.20;;;;;;5021666;28;20052;-79
2021/11/30 03:43:55;;;;;;;3.80;1.38;;;7.20;96.20;;;;;;5023970;28;20072;-79
2021/11/30 03:46:21;;;;;;;1.25;1.15;;;7.20;96.20;;;;;;5030694;28;20045;-79
2021/11/30 03:48:47;;;;;;;1.30;1.10;;;7.20;96.20;;;;;;5022728;28;20393;-79
2021/11/30 03:51:13;;;;;;;1.30;1.20;;;7.20;96.30;;;;;;5033064;28;20028;-79
2021/11/30 03:53:39;;;;;;;1.58;1.40;;;7.30;96.30;;;;;;5032432;28;20045;-79
2021/11/30 03:56:04;;;;;;;1.90;1.52;;;7.30;96.30;;;;;;5027743;28;20038;-79
2021/11/30 03:58:30;;;;;;;1.60;1.50;;;7.30;96.20;;;;;;5019122;28;20129;-79
2021/11/30 04:00:56;;;;;;;1.23;1.13;;;7.40;96.20;;;;;;5026183;28;20033;-79
2021/11/30 04:03:23;;;;;;;2.72;1.60;;;7.40;96.30;;;;;;5026277;28;20068;-79
2021/11/30 04:05:49;;;;;;;3.65;2.25;;;7.50;96.30;;;;;;5032487;28;20029;-79
2021/11/30 04:08:14;;;;;;;5.28;1.98;;;7.50;96.30;;;;;;5028971;28;20461;-79
2021/11/30 04:10:40;;;;;;;2.17;1.70;;;7.50;96.50;;;;;;5029854;28;20079;-79
2021/11/30 04:13:06;;;;;;;3.05;1.98;;;7.60;96.70;;;;;;5022617;28;20386;-81
2021/11/30 04:15:32;;;;;;;2.25;1.48;;;7.60;96.60;;;;;;5020235;28;20026;-82
2021/11/30 04:17:57;;;;;;;5.68;2.03;;;7.60;96.70;;;;;;5024737;28;20480;-82
2021/11/30 04:20:23;;;;;;;6.82;2.03;;;7.70;96.80;;;;;;5023160;28;20534;-79
2021/11/30 04:22:49;;;;;;;4.40;1.90;;;7.70;96.80;;;;;;5032525;28;20481;-79
2021/11/30 04:25:15;;;;;;;6.40;1.98;;;7.80;97.00;;;;;;5019665;28;20483;-79
2021/11/30 04:27:40;;;;;;;5.88;1.73;;;7.80;97.30;;;;;;5028939;28;20032;-79
2021/11/30 04:30:07;;;;;;;2.45;1.58;;;7.80;97.00;;;;;;5030218;28;20393;-78
2021/11/30 04:32:33;;;;;;;9.73;2.03;;;7.90;97.10;;;;;;5030253;28;20121;-79
2021/11/30 04:34:59;;;;;;;4.82;1.73;;;7.90;97.10;;;;;;5029538;28;20124;-80
2021/11/30 04:37:25;;;;;;;4.18;1.90;;;8.00;97.10;;;;;;5022474;28;20037;-80
2021/11/30 04:39:51;;;;;;;5.05;1.45;;;8.00;97.00;;;;;;5030666;28;20087;-79
2021/11/30 04:42:16;;;;;;;10.13;2.10;;;8.10;97.00;;;;;;5032060;28;20029;-79
2021/11/30 04:44:52;;;;;;;6.75;1.92;;;8.20;97.00;;;;;;5019023;28;20034;-80
2021/11/30 04:47:18;;;;;;;8.38;1.45;;;8.20;96.90;;;;;;5017419;28;20088;-79
2021/11/30 04:49:56;;;;;;;8.55;2.17;;;8.30;96.90;;;;;;5020298;28;20029;-77
2021/11/30 04:52:22;;;;;;;6.15;1.25;;;8.30;96.90;;;;;;5017859;28;20133;-79
2021/11/30 04:54:48;;;;;;;6.00;1.70;;;8.30;96.90;;;;;;5019362;28;20474;-78
2021/11/30 04:57:13;;;;;;;13.10;2.10;;;8.40;97.00;;;;;;5028500;28;20040;-78
2021/11/30 04:59:39;;;;;;;4.43;1.13;;;8.40;96.90;;;;;;5029289;28;20021;-78
2021/11/30 05:02:05;;;;;;;4.43;1.60;;;8.50;96.90;;;;;;5026706;28;20056;-76
2021/11/30 05:04:30;;;;;;;6.93;1.52;;;8.50;96.80;;;;;;5028156;28;20029;-77
2021/11/30 05:06:57;;;;;;;6.30;1.52;;;8.50;96.80;;;;;;5030264;28;20385;-77
2021/11/30 05:09:23;;;;;;;11.15;1.60;;;8.60;97.00;;;;;;5023682;28;20040;-79
2021/11/30 05:11:49;;;;;;;8.23;1.20;;;8.60;96.60;;;;;;5029109;28;20025;-79
2021/11/30 05:14:14;;;;;;;3.72;1.02;;;8.70;96.60;;;;;;5022917;28;20045;-76
2021/11/30 05:16:40;;;;;;;7.22;1.48;;;8.70;96.60;;;;;;5027598;28;20116;-68
2021/11/30 05:19:06;;;;;;;6.18;2.15;;;8.80;96.50;;;;;;5029792;28;20400;-76
2021/11/30 05:21:32;;;;;;;14.07;3.55;;;8.80;96.50;;;;;;5026358;28;20101;-76
2021/11/30 05:24:02;;;;;;;23.55;2.70;;;8.90;96.50;;;;;;5019074;28;20100;-77
2021/11/30 05:26:28;;;;;;;15.52;2.20;;;8.90;96.50;;;;;;5030136;28;20048;-76
2021/11/30 05:28:54;;;;;;;8.90;1.42;;;9.00;96.40;;;;;;5025847;28;20041;-76
2021/11/30 05:31:20;;;;;;;7.35;1.73;;;9.00;96.30;;;;;;5028361;28;20458;-77
2021/11/30 05:33:47;;;;;;;21.67;2.72;;;9.00;96.50;;;;;;5024229;28;20036;-76
2021/11/30 05:36:13;;;;;;;22.65;3.05;;;9.10;96.50;;;;;;5025225;28;20032;-77
2021/11/30 05:38:39;;;;;;;13.02;2.08;;;9.10;96.40;;;;;;5023885;28;20033;-76
2021/11/30 05:41:05;;;;;;;14.07;2.72;;;9.10;96.40;;;;;;5030471;28;20041;-80
2021/11/30 05:43:31;;;;;;;7.07;1.67;;;9.20;96.50;;;;;;5019249;28;20021;-80
2021/11/30 05:47:49;;;;;;;16.73;2.58;;;9.20;96.00;;;;;;5095863;27;20339;-84
2021/11/30 05:50:15;;;;;;;16.77;2.38;;;9.30;96.20;;;;;;5097741;28;20025;-86
2021/11/30 05:52:41;;;;;;;8.30;1.35;;;9.30;96.30;;;;;;5100078;28;20479;-71
2021/11/30 05:55:07;;;;;;;12.20;2.10;;;9.30;96.30;;;;;;5100896;28;20024;-80
2021/11/30 05:57:33;;;;;;;7.38;1.27;;;9.40;96.40;;;;;;5104342;28;20035;-80
2021/11/30 06:00:02;;;;;;;2.85;1.60;;;9.40;96.30;;;;;;5103562;28;20032;-80
2021/11/30 06:05:26;;;;;;;3.03;0.57;;;9.40;95.90;;;;;;5102841;28;20051;-80
2021/11/30 06:07:53;;;;;;;10.90;1.52;;;9.40;95.90;;;;;;5100240;28;20483;-78
2021/11/30 06:10:19;;;;;;;8.13;1.52;;;9.40;95.90;;;;;;5099347;28;20024;-80
2021/11/30 06:12:45;;;;;;;4.88;0.90;;;9.40;95.90;;;;;;5105375;28;20034;-78
2021/11/30 06:15:11;;;;;;;12.40;2.05;;;9.50;96.00;;;;;;5096449;28;20033;-77
2021/11/30 06:17:37;;;;;;;4.80;0.85;;;9.50;96.10;;;;;;5102093;28;20039;-77
2021/11/30 06:20:05;;;;;;;10.43;1.35;;;9.50;96.40;;;;;;5098868;28;20032;-82
2021/11/30 06:22:32;;;;;;;20.45;3.03;;;9.50;96.60;;;;;;5091417;28;20387;-79
2021/11/30 06:24:58;;;;;;;14.70;2.63;;;9.60;96.70;;;;;;5094184;28;20028;-76
2021/11/30 06:27:24;;;;;;;15.43;2.08;;;9.60;96.70;;;;;;5101377;28;20115;-77
2021/11/30 06:29:49;;;;;;;14.30;2.55;;;9.60;96.60;;;;;;5100933;28;20079;-77
2021/11/30 06:32:15;;;;;;;8.23;1.08;;;9.70;96.60;;;;;;5100544;28;20032;-76
2021/11/30 06:34:41;;;;;;;15.10;1.48;;;9.60;96.60;;;;;;5091094;28;20032;-78
2021/11/30 06:37:09;;;;;;;2.20;0.60;;;9.70;96.60;;;;;;5099915;28;20069;-77
2021/11/30 06:39:35;;;;;;;2.58;1.10;;;9.70;96.40;;;;;;5094462;28;20044;-77
2021/11/30 06:42:02;;;;;;;10.55;1.63;;;9.80;96.30;;;;;;5092583;28;20689;-77
2021/11/30 06:44:28;;;;;;;11.27;1.63;;;9.80;96.20;;;;;;5093778;28;20613;-79
2021/11/30 06:46:55;;;;;;;12.13;1.80;;;9.80;96.00;;;;;;5098391;28;21781;-76
2021/11/30 06:49:21;;;;;;;16.63;2.05;;;9.80;96.00;;;;;;5103266;28;20036;-77
2021/11/30 06:51:47;;;;;;;22.13;2.47;;;9.80;95.90;;;;;;5089304;28;20086;-76
2021/11/30 06:54:12;;;;;;;10.80;1.30;;;9.80;95.90;;;;;;5100227;28;20031;-76
2021/11/30 06:56:38;;;;;;;12.18;2.65;;;9.90;95.90;;;;;;5083436;28;20036;-76
2021/11/30 06:59:05;;;;;;;11.95;2.75;;;9.90;95.60;;;;;;5076958;28;20064;-75
2021/11/30 07:01:33;;;;;;;14.07;2.25;;;9.90;95.60;;;;;;5072759;28;20232;-76
2021/11/30 07:04:00;;;;;;;12.40;1.58;;;9.90;95.50;;;;;;5073982;28;20059;-76
2021/11/30 07:06:35;;;;;;;14.38;2.33;;;9.80;95.40;;;;;;5076871;28;20037;-76
2021/11/30 07:12:13;;;;;;;9.95;1.88;;;9.80;95.30;;;;;;5021143;28;20064;-76
2021/11/30 07:14:39;;;;;;;20.05;2.20;;;9.80;95.30;;;;;;5020811;28;20401;-76
2021/11/30 07:17:05;;;;;;;10.77;1.92;;;9.90;95.50;;;;;;5052809;28;20033;-76
2021/11/30 07:19:32;;;;;;;23.77;2.63;;;9.90;95.40;;;;;;5073713;28;20036;-76
2021/11/30 07:21:58;;;;;;;11.82;2.10;;;9.80;95.30;;;;;;5076968;28;20491;-76
2021/11/30 07:24:23;;;;;;;2.90;0.88;;;9.90;95.30;;;;;;5073735;28;20093;-76
2021/11/30 07:26:49;;;;;;;4.65;1.17;;;9.90;95.30;;;;;;5073474;28;20040;-76
2021/11/30 07:29:15;;;;;;;10.40;1.05;;;9.90;95.20;;;;;;5080440;28;20062;-76
2021/11/30 07:31:43;;;;;;;9.43;1.73;;;9.90;95.20;;;;;;5078491;28;20453;-76
2021/11/30 07:34:09;;;;;;;14.80;2.55;;;9.90;95.20;;;;;;5070409;28;20040;-76
2021/11/30 07:36:35;;;;;;;7.28;1.38;;;9.90;95.10;;;;;;5073565;28;20032;-76
2021/11/30 07:39:03;;;;;;;7.07;2.08;;;9.90;95.10;;;;;;5073445;28;20056;-76
2021/11/30 07:41:29;;;;;;;20.10;1.90;;;9.90;95.10;;;;;;5072667;28;20452;-76
2021/11/30 07:43:55;;;;;;;7.55;1.75;;;9.90;95.10;;;;;;5073997;28;20120;-76
2021/11/30 07:46:20;;;;;;;6.65;1.83;;;9.90;95.10;;;;;;5080222;28;20557;-76
2021/11/30 07:48:46;;;;;;;16.63;1.98;;;9.90;95.10;;;;;;5075882;28;20024;-76
2021/11/30 07:51:16;;;;;;;17.35;2.30;;;9.90;95.10;;;;;;5075865;28;20035;-76
2021/11/30 07:53:42;;;;;;;5.30;1.83;;;9.90;95.00;;;;;;5073447;28;20056;-76
2021/11/30 07:56:08;;;;;;;7.68;1.75;;;9.90;95.00;;;;;;5077964;28;20028;-76
2021/11/30 07:58:34;;;;;;;16.33;2.30;;;9.90;95.00;;;;;;5074088;28;20025;-76
2021/11/30 08:01:00;;;;;;;6.82;1.60;;;9.90;95.00;;;;;;5074389;28;20052;-76
2021/11/30 08:03:25;;;;;;;5.57;1.13;;;9.90;95.10;;;;;;5085960;28;20453;-76
2021/11/30 08:05:51;;;;;;;19.33;3.17;;;9.90;95.10;;;;;;5072218;28;20086;-76
2021/11/30 08:08:17;;;;;;;11.25;2.13;;;9.90;95.10;;;;;;5073014;28;20107;-72
2021/11/30 08:10:43;;;;;;;4.00;1.27;;;9.90;95.10;;;;;;5067163;28;20101;-73
2021/11/30 08:13:09;;;;;;;13.63;1.30;;;9.90;95.10;;;;;;5064944;28;20107;-75
2021/11/30 08:15:36;;;;;;;11.20;1.38;;;9.90;95.10;;;;;;5082121;28;20020;-73
2021/11/30 08:18:03;;;;;;;10.30;1.67;;;9.90;95.10;;;;;;5074806;28;20067;-73
2021/11/30 08:20:29;;;;;;;13.45;1.83;;;9.90;95.10;;;;;;5078571;28;20032;-75
2021/11/30 08:22:55;;;;;;;12.65;1.73;;;9.90;95.10;;;;;;5082007;28;20040;-75
2021/11/30 08:25:20;;;;;;;11.68;1.92;;;9.90;95.10;;;;;;5071491;28;20025;-76
2021/11/30 08:27:46;;;;;;;17.40;2.22;;;9.90;95.30;;;;;;5082897;28;20867;-76
2021/11/30 08:30:12;;;;;;;6.63;1.20;;;9.90;95.00;;;;;;5084253;28;20028;-75
2021/11/30 08:32:40;;;;;;;10.80;1.60;;;9.90;95.00;;;;;;5065871;28;20037;-76
2021/11/30 08:35:06;;;;;;;19.85;2.63;;;10.00;95.00;;;;;;5084984;28;20035;-75
2021/11/30 08:37:32;;;;;;;28.05;2.53;;;9.90;94.90;;;;;;5088834;28;20034;-76
2021/11/30 08:39:58;;;;;;;28.77;2.92;;;10.00;94.90;;;;;;5078069;28;20119;-76
2021/11/30 08:42:24;;;;;;;11.90;2.53;;;10.00;94.80;;;;;;5073955;28;20021;-75
2021/11/30 08:44:51;;;;;;;22.38;4.30;;;10.00;94.70;;;;;;5080906;28;20032;-77
2021/11/30 08:47:20;;;;;;;26.00;3.63;;;10.00;94.60;;;;;;5078207;28;20051;-76
2021/11/30 08:49:46;;;;;;;1.30;1.05;;;10.10;94.50;;;;;;5082250;28;20062;-76
2021/11/30 08:52:17;;;;;;;17.15;2.35;;;10.10;94.40;;;;;;5079782;28;20499;-76
2021/11/30 08:54:44;;;;;;;14.38;2.92;;;10.10;94.40;;;;;;5084280;28;20031;-75
2021/11/30 08:57:10;;;;;;;11.48;1.65;;;10.20;94.40;;;;;;5082866;28;20648;-75
2021/11/30 08:59:37;;;;;;;12.82;2.20;;;10.10;94.40;;;;;;5087494;28;20032;-76
2021/11/30 09:02:03;;;;;;;10.48;2.00;;;10.20;94.40;;;;;;5080229;28;20479;-76
2021/11/30 09:04:28;;;;;;;14.98;3.33;;;10.10;94.40;;;;;;5072756;28;20060;-76
2021/11/30 09:06:54;;;;;;;11.27;1.75;;;10.10;94.40;;;;;;5087109;28;20040;-75
2021/11/30 09:09:20;;;;;;;17.23;2.35;;;10.10;94.40;;;;;;5078442;28;20032;-76
2021/11/30 09:11:46;;;;;;;15.20;2.47;;;10.10;94.40;;;;;;5071437;28;20055;-74
2021/11/30 09:14:15;;;;;;;25.52;2.97;;;10.10;94.20;;;;;;5070373;28;20491;-76
2021/11/30 09:16:41;;;;;;;18.38;2.55;;;10.10;94.10;;;;;;5081495;28;20427;-75
2021/11/30 09:19:06;;;;;;;10.80;2.67;;;10.10;94.00;;;;;;5081585;28;20108;-75
2021/11/30 09:21:32;;;;;;;13.77;3.75;;;10.10;94.20;;;;;;5082862;28;20028;-74
2021/11/30 09:23:57;;;;;;;6.80;1.55;;;10.10;94.10;;;;;;5079080;28;20036;-74
2021/11/30 09:26:25;;;;;;;15.48;2.65;;;10.10;94.10;;;;;;5070809;28;20498;-75
2021/11/30 09:28:51;;;;;;;22.77;3.03;;;10.10;94.00;;;;;;5075803;28;20068;-75
2021/11/30 09:31:17;;;;;;;10.65;2.00;;;10.10;93.60;;;;;;5073008;28;20033;-75
2021/11/30 09:33:44;;;;;;;2.85;1.73;;;10.10;93.80;;;;;;5070921;28;20070;-76
2021/11/30 09:36:11;;;;;;;20.30;3.35;;;10.10;94.00;;;;;;5070871;28;20149;-76
2021/11/30 09:38:38;;;;;;;13.43;2.15;;;10.10;93.80;;;;;;5071824;28;20036;-76
2021/11/30 09:41:04;;;;;;;40.30;3.45;;;10.10;93.90;;;;;;5072071;28;20144;-74
2021/11/30 09:43:32;;;;;;;14.10;2.50;;;10.10;93.90;;;;;;5063166;28;20446;-74
2021/11/30 09:46:00;;;;;;;6.47;1.60;;;10.20;93.40;;;;;;5081800;28;20051;-74
2021/11/30 09:48:28;;;;;;;15.35;2.95;;;10.10;93.00;;;;;;5062801;28;20037;-75
2021/11/30 09:50:54;;;;;;;21.77;3.45;;;10.10;92.20;;;;;;5063812;28;20037;-76
2021/11/30 09:53:20;;;;;;;24.63;4.05;;;10.10;91.70;;;;;;5086083;28;20043;-76
2021/11/30 09:55:48;;;;;;;25.35;3.92;;;10.20;91.60;;;;;;5079529;28;20075;-74
2021/11/30 09:58:16;;;;;;;17.73;3.08;;;10.20;91.60;;;;;;5078007;28;20043;-74
2021/11/30 10:00:43;;;;;;;22.00;3.17;;;10.20;91.70;;;;;;5083370;28;20036;-74
2021/11/30 10:03:09;;;;;;;33.60;4.57;;;10.20;91.70;;;;;;5083759;28;20024;-74
2021/11/30 10:05:36;;;;;;;24.30;3.95;;;10.20;91.50;;;;;;5070833;28;20447;-75
2021/11/30 10:08:03;;;;;;;13.18;2.17;;;10.10;91.30;;;;;;5080821;28;20035;-75
2021/11/30 10:10:31;;;;;;;22.60;2.53;;;10.20;91.60;;;;;;5082681;28;20028;-74
2021/11/30 10:12:59;;;;;;;25.48;3.72;;;10.20;91.80;;;;;;5079060;28;20041;-75
2021/11/30 10:15:26;;;;;;;20.83;4.10;;;10.20;91.90;;;;;;5079392;28;20036;-76
2021/11/30 10:17:51;;;;;;;8.23;2.00;;;10.10;92.40;;;;;;5077300;28;20511;-75
2021/11/30 10:20:17;;;;;;;24.90;3.03;;;10.20;92.60;;;;;;5072566;28;20032;-74
2021/11/30 10:22:49;;;;;;;25.17;4.20;;;10.20;92.60;;;;;;5070417;28;20032;-76
2021/11/30 10:25:33;;;;;;;23.13;3.67;;;10.20;92.30;;;;;;5071048;28;20032;-75
2021/11/30 10:28:23;;;;;;;23.23;3.85;;;10.20;92.10;;;;;;5082359;28;20044;-76
2021/11/30 10:30:51;;;;;;;9.10;1.70;;;10.20;92.20;;;;;;5080648;28;20028;-75
2021/11/30 10:33:27;;;;;;;17.65;3.03;;;10.20;92.10;;;;;;5072778;28;20039;-75
2021/11/30 10:36:00;;;;;;;17.33;3.15;;;10.20;91.80;;;;;;5083713;28;20071;-74
2021/11/30 10:38:52;;;;;;;17.70;2.90;;;10.20;91.60;;;;;;5076140;28;20028;-74
2021/11/30 10:41:21;;;;;;;13.07;2.88;;;10.20;91.70;;;;;;5079386;28;20036;-75
2021/11/30 10:44:04;;;;;;;15.68;2.90;;;10.20;91.70;;;;;;5082533;28;20027;-77
2021/11/30 10:46:35;;;;;;;19.00;2.63;;;10.20;91.30;;;;;;5079748;28;20113;-76
2021/11/30 10:49:02;;;;;;;7.03;2.10;;;10.20;91.00;;;;;;5088935;28;20096;-76
2021/11/30 10:51:39;;;;;;;15.98;2.45;;;10.20;92.00;;;;;;5085181;28;20063;-76
2021/11/30 10:54:05;;;;;;;21.85;3.40;;;10.20;91.70;;;;;;5081380;28;20024;-73
2021/11/30 10:56:30;;;;;;;14.80;2.33;;;10.20;91.40;;;;;;5075130;28;20066;-74
2021/11/30 10:58:56;;;;;;;10.40;2.10;;;10.20;91.60;;;;;;5068140;28;20020;-74
2021/11/30 11:01:24;;;;;;;11.77;2.33;;;10.20;91.60;;;;;;5081002;28;20123;-73
2021/11/30 11:04:12;;;;;;;13.38;2.45;;;10.20;91.80;;;;;;5077778;28;20120;-73
2021/11/30 11:06:38;;;;;;;24.05;2.65;;;10.20;91.80;;;;;;5083745;28;20069;-73
2021/11/30 11:09:08;;;;;;;19.90;3.08;;;10.30;91.90;;;;;;5077663;28;20028;-73
2021/11/30 11:11:44;;;;;;;25.67;3.80;;;10.30;91.90;;;;;;5072075;28;20496;-73
2021/11/30 11:14:25;;;;;;;18.48;2.30;;;10.30;91.90;;;;;;5075111;28;20037;-73
2021/11/30 11:16:53;;;;;;;8.20;1.23;;;10.40;92.00;;;;;;5080009;28;20039;-75
2021/11/30 11:19:41;;;;;;;13.98;2.10;;;10.40;91.80;;;;;;5087199;28;20625;-72
2021/11/30 11:22:22;;;;;;;10.98;2.17;;;10.50;91.80;;;;;;5072138;28;20410;-72
2021/11/30 11:24:50;;;;;;;14.77;2.38;;;10.40;91.50;;;;;;5076145;28;20147;-72
2021/11/30 11:27:27;;;;;;;11.60;2.28;;;10.50;91.50;;;;;;5073248;28;20048;-72
2021/11/30 11:29:56;;;;;;;9.75;2.20;;;10.50;91.10;;;;;;5078068;28;20141;-73
2021/11/30 11:32:23;;;;;;;13.80;3.03;;;10.40;91.10;;;;;;5073551;28;20036;-72
2021/11/30 11:34:50;;;;;;;6.20;1.42;;;10.40;90.30;;;;;;5073023;28;20024;-72
2021/11/30 11:37:16;;;;;;;8.68;1.63;;;10.40;90.10;;;;;;5074124;28;20033;-72
2021/11/30 11:39:42;;;;;;;2.70;0.93;;;10.40;90.30;;;;;;5074854;28;20100;-72
2021/11/30 11:42:11;;;;;;;10.68;1.63;;;10.40;90.20;;;;;;5079773;28;20016;-72
2021/11/30 11:44:39;;;;;;;9.18;1.80;;;10.40;89.20;;;;;;5084720;28;20077;-71
2021/11/30 11:47:10;;;;;;;9.30;1.30;;;10.40;90.00;;;;;;5078731;28;20059;-71
2021/11/30 11:49:38;;;;;;;10.20;1.70;;;10.40;90.10;;;;;;5089830;28;20115;-72
2021/11/30 11:52:05;;;;;;;13.48;3.22;;;10.40;89.70;;;;;;5083536;27;20036;-73
2021/11/30 11:54:34;;;;;;;18.27;2.40;;;10.40;90.00;;;;;;5079769;28;20032;-73
2021/11/30 11:57:03;;;;;;;6.10;1.30;;;10.40;90.30;;;;;;5064085;28;20391;-72
2021/11/30 11:59:34;;;;;;;10.38;2.15;;;10.50;90.20;;;;;;5083721;28;20028;-72
2021/11/30 12:02:24;;;;;;;6.68;1.77;;;10.40;90.40;;;;;;5081522;28;20035;-72
2021/11/30 12:04:59;;;;;;;12.75;2.17;;;10.40;90.50;;;;;;5084714;28;20052;-73
2021/11/30 12:07:28;;;;;;;7.55;1.30;;;10.50;91.40;;;;;;5084898;28;20063;-74
2021/11/30 12:10:16;;;;;;;15.90;3.35;;;10.50;91.80;;;;;;5088179;28;20085;-73
2021/11/30 12:13:17;;;;;;;10.38;1.73;;;10.50;92.00;;;;;;5084985;28;20043;-72
2021/11/30 12:16:18;;;;;;;14.40;3.20;;;10.50;92.10;;;;;;5082259;28;20024;-72
2021/11/30 12:18:47;;;;;;;11.05;1.73;;;10.60;92.10;;;;;;5045154;28;20055;-72
2021/11/30 12:21:20;;;;;;;14.00;3.00;;;10.50;92.00;;;;;;5068082;28;20036;-72
2021/11/30 12:23:48;;;;;;;4.57;1.08;;;10.60;92.00;;;;;;5072513;28;20446;-73
2021/11/30 12:26:38;;;;;;;18.98;2.00;;;10.50;91.90;;;;;;5073753;28;20029;-73
2021/11/30 12:29:25;;;;;;;20.50;2.53;;;10.50;91.70;;;;;;5069494;28;20028;-73
2021/11/30 12:31:52;;;;;;;11.60;1.80;;;10.50;91.70;;;;;;5073793;28;20106;-72
2021/11/30 12:34:32;;;;;;;15.82;2.40;;;10.50;91.60;;;;;;5086714;28;20066;-72
2021/11/30 12:37:06;;;;;;;17.75;2.53;;;10.50;91.40;;;;;;5059426;28;20033;-72
2021/11/30 12:39:53;;;;;;;12.25;2.78;;;10.60;91.40;;;;;;5072700;28;20043;-72
2021/11/30 12:42:19;;;;;;;19.00;2.40;;;10.50;91.20;;;;;;5081082;28;20032;-72
2021/11/30 12:44:45;;;;;;;13.57;2.15;;;10.60;91.10;;;;;;5087321;28;20031;-72
2021/11/30 12:47:27;;;;;;;13.55;1.92;;;10.50;90.90;;;;;;5071442;28;20408;-72
2021/11/30 12:49:54;;;;;;;8.57;2.05;;;10.50;90.90;;;;;;5075288;28;20111;-72
2021/11/30 12:52:26;;;;;;;19.70;2.38;;;10.50;90.70;;;;;;5086400;28;20056;-72
2021/11/30 12:55:15;;;;;;;10.90;2.60;;;10.50;90.70;;;;;;5077437;27;20475;-74
2021/11/30 12:57:43;;;;;;;16.00;2.05;;;10.50;90.50;;;;;;5081914;28;20063;-72
2021/11/30 13:00:09;;;;;;;16.73;2.13;;;10.50;90.70;;;;;;5087146;28;20035;-72
2021/11/30 13:02:45;;;;;;;13.43;1.70;;;10.50;90.40;;;;;;5081880;28;20046;-72
2021/11/30 13:05:10;;;;;;;17.88;2.28;;;10.50;90.50;;;;;;5085024;27;20093;-71
2021/11/30 13:07:48;;;;;;;7.35;1.80;;;10.50;90.30;;;;;;5070647;28;20040;-72
2021/11/30 13:10:22;;;;;;;12.50;2.58;;;10.40;90.10;;;;;;5077362;28;20392;-72